Time;durP1;ratioP1;P1;durP2;ratioP2;P2;SDS_P1;SDS_P2;PMS_P1;PMS_P2;Temp;Humidity;BMP_temperature;BMP_pressure;BME280_temperature;BME280_humidity;BME280_pressure;Samples;Min_cycle;Max_cycle;Signal;HPM_P1;HPM_P2
2022/06/02 00:00:20;;;;;;;;;3.00;2.75;;;;;18.10;39.22;101243.69;5109693;27;45097;-79
2022/06/02 00:03:10;;;;;;;;;2.00;2.00;;;;;18.08;39.26;101251.66;5107525;27;45112;-79
2022/06/02 00:06:21;;;;;;;;;1.75;1.75;;;;;18.05;39.82;101263.16;5106654;27;47480;-78
2022/06/02 00:09:18;;;;;;;;;0.75;0.75;;;;;17.90;39.43;101252.31;5062453;27;45344;-81
2022/06/02 00:12:03;;;;;;;;;2.75;2.75;;;;;17.93;40.09;101251.44;5087558;28;45102;-79
2022/06/02 00:14:52;;;;;;;;;3.00;3.00;;;;;17.87;40.70;101252.28;5093768;27;45028;-82
2022/06/02 00:17:39;;;;;;;;;2.25;2.25;;;;;17.83;40.55;101258.41;5108012;27;46156;-78
2022/06/02 00:20:12;;;;;;;;;4.00;4.00;;;;;17.73;40.85;101256.50;5108262;27;45285;-78
2022/06/02 00:23:10;;;;;;;;;2.25;2.25;;;;;17.72;40.29;101262.66;5107957;27;45456;-83
2022/06/02 00:25:56;;;;;;;;;1.75;1.50;;;;;17.65;40.68;101261.69;5096408;27;46304;-80
2022/06/02 00:28:24;;;;;;;;;3.25;2.75;;;;;17.69;41.08;101267.97;5087653;28;47156;-83
2022/06/02 00:31:04;;;;;;;;;1.25;1.25;;;;;17.53;40.55;101251.78;5093272;27;45620;-82
2022/06/02 00:33:43;;;;;;;;;2.00;2.00;;;;;17.59;41.11;101258.97;5107873;27;45273;-83
2022/06/02 00:36:17;;;;;;;;;2.50;2.50;;;;;17.42;40.88;101231.25;5106409;27;45413;-81
2022/06/02 00:38:42;;;;;;;;;1.75;1.75;;;;;17.35;40.91;101221.41;5106672;27;45978;-82
2022/06/02 00:41:21;;;;;;;;;2.25;2.25;;;;;17.66;40.96;101275.88;5109511;27;45223;-81
2022/06/02 00:43:50;;;;;;;;;2.50;2.50;;;;;17.65;40.80;101268.78;5107805;27;45062;-82
2022/06/02 00:46:33;;;;;;;;;1.75;1.75;;;;;17.64;40.92;101267.91;5088381;27;45459;-79
2022/06/02 00:49:14;;;;;;;;;3.00;2.50;;;;;17.62;40.72;101269.63;5093607;27;45484;-82
2022/06/02 00:51:39;;;;;;;;;1.50;1.50;;;;;17.60;41.30;101268.72;5107636;27;45730;-81
2022/06/02 00:57:30;;;;;;;;;2.50;2.00;;;;;17.58;41.07;101262.47;5088684;28;45065;-78
2022/06/02 01:00:18;;;;;;;;;2.50;2.50;;;;;17.45;41.57;101234.84;5086503;28;47133;-78
2022/06/02 01:03:13;;;;;;;;;2.50;2.50;;;;;17.33;40.90;101224.03;5090898;27;45689;-79
2022/06/02 01:06:04;;;;;;;;;3.00;3.00;;;;;17.37;41.68;101244.47;5106459;27;45683;-78
2022/06/02 01:09:06;;;;;;;;;2.75;2.75;;;;;17.45;41.59;101261.41;5108591;27;45038;-78
2022/06/02 01:12:08;;;;;;;;;3.25;3.00;;;;;17.43;41.51;101264.91;5108358;27;46059;-80
2022/06/02 01:14:52;;;;;;;;;3.00;3.00;;;;;17.41;41.80;101256.03;5083587;27;45668;-81
2022/06/02 01:17:45;;;;;;;;;4.75;4.00;;;;;17.38;41.54;101263.94;5087561;27;45143;-80
2022/06/02 01:20:28;;;;;;;;;3.00;3.00;;;;;17.35;41.88;101267.47;5091462;27;45007;-81
2022/06/02 01:23:21;;;;;;;;;3.00;3.00;;;;;17.31;42.03;101270.06;5091461;27;46192;-82
2022/06/02 01:26:21;;;;;;;;;3.50;3.50;;;;;17.28;42.40;101265.56;5103064;27;45623;-81
2022/06/02 01:29:01;;;;;;;;;3.00;2.25;;;;;17.03;42.38;101214.72;5111818;27;45241;-81
2022/06/02 01:31:48;;;;;;;;;3.00;3.00;;;;;17.21;42.20;101253.06;5101133;27;45187;-82
2022/06/02 01:34:23;;;;;;;;;4.00;4.00;;;;;17.15;42.45;101245.91;5099335;27;46231;-79
2022/06/02 01:37:09;;;;;;;;;3.00;3.00;;;;;17.15;42.47;101260.97;5091182;28;45187;-82
2022/06/02 01:40:12;;;;;;;;;4.00;4.00;;;;;17.12;42.57;101260.91;5092394;27;45099;-82
2022/06/02 01:42:48;;;;;;;;;3.00;3.00;;;;;16.97;42.90;101237.63;5103619;27;45218;-79
2022/06/02 01:45:25;;;;;;;;;4.00;4.00;;;;;17.08;43.06;101259.06;5101352;27;46103;-82
2022/06/02 01:48:06;;;;;;;;;3.00;3.00;;;;;16.77;42.65;101216.06;5090906;27;45142;-81
2022/06/02 01:50:54;;;;;;;;;2.50;2.50;;;;;17.01;43.15;101272.25;5091179;27;45052;-79
2022/06/02 01:53:52;;;;;;;;;5.00;4.25;;;;;16.93;42.88;101257.94;5091075;27;45286;-81
2022/06/02 01:56:46;;;;;;;;;3.50;3.50;;;;;16.95;43.07;101260.63;5094943;27;45281;-79
2022/06/02 01:59:31;;;;;;;;;4.00;4.00;;;;;16.92;43.33;101273.84;5107115;27;45633;-79
2022/06/02 02:02:13;;;;;;;;;3.00;3.00;;;;;16.85;44.03;101275.50;5106926;27;45168;-79
2022/06/02 02:05:06;;;;;;;;;5.00;5.00;;;;;16.80;44.01;101271.88;5105975;27;45446;-79
2022/06/02 02:07:58;;;;;;;;;4.75;4.00;;;;;16.77;44.18;101263.84;5090470;28;45783;-81
2022/06/02 02:10:57;;;;;;;;;4.25;4.25;;;;;16.74;43.91;101266.44;5097682;27;45327;-80
2022/06/02 02:13:39;;;;;;;;;3.00;3.00;;;;;16.53;44.43;101237.72;5093955;27;45359;-78
2022/06/02 02:16:20;;;;;;;;;4.50;3.75;;;;;16.68;44.11;101261.88;5105888;27;45300;-83
2022/06/02 02:19:04;;;;;;;;;5.50;4.00;;;;;16.65;44.35;101261.84;5090387;27;45514;-80
2022/06/02 02:21:48;;;;;;;;;4.50;4.50;;;;;16.37;44.43;101218.00;5090531;28;45146;-81
2022/06/02 02:24:25;;;;;;;;;3.50;3.50;;;;;16.62;44.38;101266.19;5111943;27;45163;-79
2022/06/02 02:27:04;;;;;;;;;5.00;4.00;;;;;16.57;44.62;101259.91;5129962;27;45333;-78
2022/06/02 02:29:51;;;;;;;;;3.25;3.25;;;;;16.55;44.80;101258.97;5111502;27;46115;-79
2022/06/02 02:32:39;;;;;;;;;5.00;5.00;;;;;16.26;45.08;101219.56;5125500;27;45114;-81
2022/06/02 02:35:25;;;;;;;;;4.75;4.75;;;;;16.15;45.56;101195.44;5099882;27;45098;-78
2022/06/02 02:37:57;;;;;;;;;4.00;4.00;;;;;16.26;45.41;101232.81;5111623;27;45202;-78
2022/06/02 02:40:37;;;;;;;;;5.00;4.50;;;;;16.17;45.20;101220.25;5126868;27;45947;-78
2022/06/02 02:43:14;;;;;;;;;5.00;5.00;;;;;16.20;45.38;101236.22;5111545;27;45705;-81
2022/06/02 02:45:46;;;;;;;;;4.00;4.00;;;;;16.09;45.43;101219.22;5110673;27;45574;-78
2022/06/02 02:48:27;;;;;;;;;6.25;5.25;;;;;15.97;45.47;101203.97;5110770;27;45000;-79
2022/06/02 02:51:23;;;;;;;;;7.00;6.00;;;;;16.33;45.48;101276.25;5113898;27;45661;-78
2022/06/02 02:54:04;;;;;;;;;5.00;5.00;;;;;16.25;45.75;101276.09;5114834;27;45231;-79
2022/06/02 02:56:49;;;;;;;;;6.50;6.50;;;;;16.26;45.88;101277.91;5116936;27;45414;-79
2022/06/02 02:59:30;;;;;;;;;5.75;5.75;;;;;16.26;45.97;101283.22;5111856;27;45032;-79
2022/06/02 03:02:17;;;;;;;;;4.00;4.00;;;;;16.19;46.17;101282.19;5110520;27;45426;-79
2022/06/02 03:05:19;;;;;;;;;5.75;5.25;;;;;16.13;46.46;101279.41;5100672;27;45360;-80
2022/06/02 03:07:44;;;;;;;;;5.25;5.25;;;;;15.79;46.64;101221.25;5104438;27;44923;-78
2022/06/02 03:10:23;;;;;;;;;7.00;6.75;;;;;16.04;46.78;101263.31;5131071;27;45114;-78
2022/06/02 03:13:18;;;;;;;;;5.00;5.00;;;;;15.96;46.31;101249.00;5130328;27;46151;-79
2022/06/02 03:16:05;;;;;;;;;5.50;5.50;;;;;15.88;46.55;101243.53;5127601;27;45349;-81
2022/06/02 03:18:45;;;;;;;;;6.50;6.00;;;;;15.82;46.73;101237.22;5110166;27;45179;-79
2022/06/02 03:21:34;;;;;;;;;7.00;6.75;;;;;16.04;46.17;101276.56;5110626;27;44953;-79
2022/06/02 03:24:14;;;;;;;;;7.00;7.00;;;;;16.06;46.48;101274.84;5110248;27;46166;-78
2022/06/02 03:27:10;;;;;;;;;6.75;6.50;;;;;16.01;47.01;101268.56;5110620;27;45276;-78
2022/06/02 03:29:51;;;;;;;;;6.25;5.25;;;;;16.03;46.36;101277.44;5110002;27;45069;-78
2022/06/02 03:32:40;;;;;;;;;5.50;5.50;;;;;15.95;46.82;101282.56;5109587;27;45304;-81
2022/06/02 03:35:33;;;;;;;;;5.50;5.00;;;;;15.89;47.48;101279.78;5116071;27;45447;-78
2022/06/02 03:38:29;;;;;;;;;5.25;5.25;;;;;15.84;47.16;101272.59;5111700;27;45585;-81
2022/06/02 03:41:07;;;;;;;;;6.25;6.00;;;;;15.80;47.69;101276.94;5091071;27;45057;-78
2022/06/02 03:43:56;;;;;;;;;5.00;5.00;;;;;15.54;47.75;101241.88;5109715;27;45561;-79
2022/06/02 03:46:39;;;;;;;;;6.00;6.00;;;;;15.71;47.73;101276.72;5125783;27;46042;-77
2022/06/02 03:49:20;;;;;;;;;5.00;5.00;;;;;15.48;48.11;101255.00;5130448;27;45377;-79
2022/06/02 03:52:27;;;;;;;;;7.00;6.25;;;;;15.56;48.31;101271.06;5104470;27;45659;-79
2022/06/02 03:55:02;;;;;;;;;6.50;5.50;;;;;15.48;48.48;101271.78;5109432;27;45077;-78
2022/06/02 03:57:46;;;;;;;;;5.00;4.00;;;;;15.42;48.65;101268.09;5129871;27;46071;-78
2022/06/02 04:00:20;;;;;;;;;7.50;6.25;;;;;15.19;48.82;101243.72;5130406;27;45222;-79
2022/06/02 04:02:56;;;;;;;;;5.00;5.00;;;;;15.39;48.68;101286.56;5109912;27;45107;-80
2022/06/02 04:05:51;;;;;;;;;5.00;5.00;;;;;15.35;49.03;101282.94;5130183;27;45131;-77
2022/06/02 04:08:35;;;;;;;;;5.75;5.25;;;;;15.33;49.14;101284.69;5126808;27;45429;-77
2022/06/02 04:11:03;;;;;;;;;6.50;6.25;;;;;15.33;49.31;101282.03;5126078;27;45059;-78
2022/06/02 04:13:43;;;;;;;;;7.00;7.00;;;;;15.29;48.60;101282.81;5129399;27;45170;-78
2022/06/02 04:16:20;;;;;;;;;6.50;6.50;;;;;15.37;49.22;101291.84;5122869;27;45096;-78
2022/06/02 04:22:23;;;;;;;;;8.00;8.00;;;;;15.37;49.14;101301.50;5110128;27;45476;-78
2022/06/02 04:25:33;;;;;;;;;8.50;8.25;;;;;15.40;49.14;101293.66;5109210;27;45378;-80
2022/06/02 04:27:58;;;;;;;;;8.75;8.00;;;;;15.46;49.41;101293.78;5104809;27;45158;-78
2022/06/02 04:30:38;;;;;;;;;6.00;6.00;;;;;15.52;49.26;101301.91;5108869;27;45145;-77
2022/06/02 04:33:20;;;;;;;;;6.00;6.00;;;;;15.58;49.12;101307.34;5126975;27;45515;-78
2022/06/02 04:36:07;;;;;;;;;6.25;5.75;;;;;15.63;48.99;101305.72;5100045;27;45261;-79
2022/06/02 04:38:44;;;;;;;;;5.00;5.00;;;;;15.68;49.49;101305.81;5110791;27;45425;-78
2022/06/02 04:41:15;;;;;;;;;6.25;6.25;;;;;15.73;49.63;101305.06;5098803;27;47609;-78
2022/06/02 04:44:06;;;;;;;;;7.00;7.00;;;;;15.80;49.29;101307.84;5116177;27;45669;-80
2022/06/02 04:46:47;;;;;;;;;7.75;7.75;;;;;15.86;49.06;101303.59;5119510;27;45392;-77
2022/06/02 04:49:52;;;;;;;;;8.75;8.00;;;;;15.85;48.35;101285.88;5101891;27;45487;-78
2022/06/02 04:52:20;;;;;;;;;7.75;7.75;;;;;16.01;48.02;101297.72;5018497;28;45369;-80
2022/06/02 04:55:10;;;;;;;;;8.25;8.25;;;;;16.08;48.08;101301.41;5114645;27;45246;-82
2022/06/02 04:57:42;;;;;;;;;8.75;8.75;;;;;16.17;47.77;101298.94;5101969;27;45114;-79
2022/06/02 05:00:17;;;;;;;;;8.00;7.25;;;;;16.24;47.52;101298.19;5102489;27;45711;-78
2022/06/02 05:03:06;;;;;;;;;8.50;7.00;;;;;16.20;47.72;101293.69;5102336;27;46344;-79
2022/06/02 05:05:40;;;;;;;;;8.25;8.00;;;;;16.37;47.86;101312.59;5110441;27;45375;-80
2022/06/02 05:08:26;;;;;;;;;7.00;7.00;;;;;16.41;47.23;101303.84;5104977;27;45376;-77
2022/06/02 05:11:16;;;;;;;;;8.25;8.25;;;;;16.45;47.46;101301.28;5086291;27;45718;-78
2022/06/02 05:13:47;;;;;;;;;8.50;8.25;;;;;16.50;47.67;101304.91;5093412;27;46325;-77
2022/06/02 05:16:23;;;;;;;;;9.25;8.50;;;;;16.54;47.99;101294.34;5099344;27;45966;-79
2022/06/02 05:18:54;;;;;;;;;9.75;9.75;;;;;16.58;47.42;101298.84;5111169;27;45113;-81
2022/06/02 05:21:25;;;;;;;;;9.00;8.50;;;;;16.38;47.67;101250.72;5130202;27;45041;-80
2022/06/02 05:24:13;;;;;;;;;9.00;8.50;;;;;16.70;47.41;101293.78;5119231;27;45379;-79
2022/06/02 05:26:41;;;;;;;;;8.75;8.75;;;;;16.72;47.18;101290.31;5104938;27;45542;-78
2022/06/02 05:29:40;;;;;;;;;9.25;8.50;;;;;16.78;46.96;101300.16;5109029;27;45259;-78
2022/06/02 05:32:30;;;;;;;;;11.50;10.00;;;;;16.85;46.63;101288.78;5115432;27;45292;-81
2022/06/02 05:35:18;;;;;;;;;10.00;9.50;;;;;16.66;47.16;101244.16;5115884;27;46433;-79
2022/06/02 05:38:10;;;;;;;;;10.00;9.75;;;;;16.98;46.86;101287.22;5122918;27;45606;-78
2022/06/02 05:40:46;;;;;;;;;9.00;8.25;;;;;17.02;46.29;101287.28;5103717;27;45036;-78
2022/06/02 05:43:14;;;;;;;;;10.00;9.75;;;;;17.06;46.42;101292.69;5120403;27;45297;-79
2022/06/02 05:45:51;;;;;;;;;10.00;10.00;;;;;17.08;46.79;101288.28;5104086;27;47248;-80
2022/06/02 05:48:54;;;;;;;;;10.50;10.50;;;;;17.11;46.66;101304.28;5124632;27;45655;-80
2022/06/02 05:51:40;;;;;;;;;10.75;10.00;;;;;17.01;46.84;101274.91;5104493;27;45274;-79
2022/06/02 05:54:17;;;;;;;;;13.00;10.75;;;;;17.11;47.30;101294.53;5104253;27;45191;-78
2022/06/02 05:57:13;;;;;;;;;8.75;8.50;;;;;17.13;47.39;101291.88;5130141;27;45260;-81
2022/06/02 05:59:57;;;;;;;;;10.25;10.00;;;;;17.13;46.98;101286.59;5112463;27;45266;-79
2022/06/02 06:02:42;;;;;;;;;9.50;9.50;;;;;17.13;46.93;101281.28;5092162;27;45276;-78
2022/06/02 06:05:14;;;;;;;;;10.75;10.75;;;;;17.05;47.73;101259.91;5116510;27;45171;-78
2022/06/02 06:07:48;;;;;;;;;10.00;10.00;;;;;17.22;47.68;101298.25;5129142;27;45154;-79
2022/06/02 06:10:51;;;;;;;;;8.25;8.25;;;;;17.26;47.31;101302.75;5120925;27;45261;-79
2022/06/02 06:13:43;;;;;;;;;10.00;10.00;;;;;17.17;47.37;101273.38;5091213;27;45267;-78
2022/06/02 06:16:39;;;;;;;;;10.00;10.00;;;;;17.39;46.52;101295.88;5091782;27;45176;-77
2022/06/02 06:19:13;;;;;;;;;13.50;11.50;;;;;17.46;46.85;101303.06;5120222;27;45699;-78
2022/06/02 06:22:20;;;;;;;;;10.50;9.50;;;;;17.49;46.14;101295.16;5126639;27;45649;-78
2022/06/02 06:25:06;;;;;;;;;12.00;11.75;;;;;17.44;46.88;101294.19;5065476;27;45118;-78
2022/06/02 06:27:34;;;;;;;;;9.25;9.00;;;;;17.40;46.50;101289.69;5111629;27;45057;-77
2022/06/02 06:30:11;;;;;;;;;9.00;8.75;;;;;17.37;46.73;101296.72;5111867;27;47197;-78
2022/06/02 06:32:52;;;;;;;;;9.00;9.00;;;;;17.32;46.90;101288.66;5129181;27;46422;-79
2022/06/02 06:35:29;;;;;;;;;9.75;9.75;;;;;17.27;47.04;101290.34;5113341;27;45253;-77
2022/06/02 06:38:00;;;;;;;;;10.25;10.00;;;;;17.23;47.08;101300.03;5110598;27;45015;-79
2022/06/02 06:40:54;;;;;;;;;9.50;9.00;;;;;17.12;47.01;101276.84;5111277;27;45519;-78
2022/06/02 06:43:53;;;;;;;;;8.00;8.00;;;;;17.22;47.00;101294.72;5120191;27;45780;-78
2022/06/02 06:46:22;;;;;;;;;11.00;11.00;;;;;17.24;46.97;101304.50;5130537;27;45195;-78
2022/06/02 06:49:00;;;;;;;;;9.75;9.75;;;;;17.15;46.96;101280.44;5091534;27;45092;-78
2022/06/02 06:51:50;;;;;;;;;9.75;9.75;;;;;17.35;47.38;101306.44;5128527;27;45861;-78
2022/06/02 06:54:31;;;;;;;;;9.00;9.00;;;;;17.40;46.77;101310.94;5112312;27;45154;-79
2022/06/02 06:57:25;;;;;;;;;9.00;9.00;;;;;17.31;46.28;101286.00;5111747;27;45107;-77
2022/06/02 07:00:19;;;;;;;;;10.00;9.00;;;;;17.51;46.86;101303.13;5092647;27;45069;-78
2022/06/02 07:03:09;;;;;;;;;10.00;9.50;;;;;17.57;46.74;101302.31;5084455;27;47511;-80
2022/06/02 07:05:48;;;;;;;;;10.50;10.50;;;;;17.41;46.77;101262.25;5110035;27;45837;-78
2022/06/02 07:08:39;;;;;;;;;10.25;10.00;;;;;17.65;46.64;101292.72;5110383;27;45244;-78
2022/06/02 07:14:12;;;;;;;;;9.75;9.75;;;;;17.60;46.30;101271.38;5130954;27;45788;-78
2022/06/02 07:16:45;;;;;;;;;10.00;9.50;;;;;17.74;45.82;101284.91;5128790;27;45270;-75
2022/06/02 07:19:14;;;;;;;;;10.00;10.00;;;;;17.88;46.35;101307.28;5111602;27;45293;-78
2022/06/02 07:21:46;;;;;;;;;8.00;8.00;;;;;17.90;46.38;101305.50;5106386;27;45134;-78
2022/06/02 07:24:17;;;;;;;;;9.25;9.00;;;;;17.93;46.63;101305.56;5107430;27;47771;-78
2022/06/02 07:27:04;;;;;;;;;9.75;8.75;;;;;17.98;46.33;101308.25;5130371;27;45806;-78
2022/06/02 07:30:07;;;;;;;;;8.50;8.25;;;;;18.02;46.35;101308.31;5117530;27;45036;-78
2022/06/02 07:32:51;;;;;;;;;10.50;10.50;;;;;18.09;46.38;101306.66;5103670;27;45301;-78
2022/06/02 07:35:22;;;;;;;;;9.50;9.25;;;;;18.14;46.77;101314.69;5110183;27;47489;-78
2022/06/02 07:38:06;;;;;;;;;14.00;12.25;;;;;18.21;46.05;101321.88;5111630;27;45172;-77
2022/06/02 07:40:50;;;;;;;;;10.00;9.00;;;;;18.18;46.46;101312.09;5111214;27;45288;-78
2022/06/02 07:44:00;;;;;;;;;10.25;9.50;;;;;18.29;46.26;101322.88;5128010;27;45092;-78
2022/06/02 07:46:54;;;;;;;;;9.75;9.50;;;;;18.24;45.56;101300.63;5110393;27;45205;-78
2022/06/02 07:49:49;;;;;;;;;9.25;9.25;;;;;18.36;45.68;101314.06;5127672;27;45561;-78
2022/06/02 07:52:32;;;;;;;;;8.25;7.25;;;;;18.39;45.33;101306.13;5128807;27;45838;-78
2022/06/02 07:55:10;;;;;;;;;8.50;8.00;;;;;18.44;45.73;101296.44;5111182;27;45253;-78
2022/06/02 07:57:50;;;;;;;;;8.00;7.50;;;;;18.50;45.47;101303.59;5114360;27;45451;-79
2022/06/02 08:00:21;;;;;;;;;8.50;8.50;;;;;18.53;44.91;101293.88;5109008;27;45238;-78
2022/06/02 08:03:17;;;;;;;;;8.75;8.25;;;;;18.65;45.69;101303.75;5116797;27;45111;-78
2022/06/02 08:05:47;;;;;;;;;7.50;7.25;;;;;18.72;45.36;101297.66;5129690;27;45610;-77
2022/06/02 08:08:29;;;;;;;;;6.50;6.50;;;;;18.79;44.77;101291.50;5110807;27;47633;-78
2022/06/02 08:11:15;;;;;;;;;8.50;8.50;;;;;18.89;44.83;101288.94;5110762;27;45585;-78
2022/06/02 08:13:58;;;;;;;;;8.25;7.00;;;;;18.99;44.44;101277.47;5110114;27;45179;-77
2022/06/02 08:16:45;;;;;;;;;7.00;7.00;;;;;19.00;44.73;101242.84;5126456;27;45058;-78
2022/06/02 08:19:36;;;;;;;;;6.00;6.00;;;;;19.27;44.33;101257.28;5121059;27;45269;-79
2022/06/02 08:22:06;;;;;;;;;8.00;8.00;;;;;19.53;43.70;101277.00;5109807;27;45655;-79
2022/06/02 08:24:56;;;;;;;;;6.00;6.00;;;;;19.71;42.99;101267.38;5112265;27;45058;-79
2022/06/02 08:27:40;;;;;;;;;5.75;5.75;;;;;19.83;42.95;101268.31;5120775;27;45189;-79
2022/06/02 08:30:20;;;;;;;;;6.75;6.00;;;;;20.02;43.01;101271.06;5109132;27;47076;-80
2022/06/02 08:33:07;;;;;;;;;5.75;5.75;;;;;20.23;42.47;101265.81;5108504;27;45239;-79
2022/06/02 08:35:59;;;;;;;;;5.50;5.50;;;;;20.44;42.25;101254.28;5090226;27;45228;-78
2022/06/02 08:38:49;;;;;;;;;4.75;4.75;;;;;20.53;42.05;101249.00;5089910;27;45103;-79
2022/06/02 08:41:52;;;;;;;;;6.00;6.00;;;;;20.58;41.85;101244.56;5089698;27;47130;-79
2022/06/02 08:44:45;;;;;;;;;5.25;5.25;;;;;20.60;41.80;101241.91;5108466;27;45204;-80
2022/06/02 08:47:35;;;;;;;;;6.50;6.50;;;;;20.70;41.96;101237.47;5128884;27;45145;-79
2022/06/02 08:50:34;;;;;;;;;5.50;5.50;;;;;20.74;41.34;101217.84;5129550;27;45145;-79
2022/06/02 08:53:37;;;;;;;;;6.50;6.50;;;;;21.04;41.19;101241.03;5119110;27;45678;-79
2022/06/02 08:56:40;;;;;;;;;7.00;5.75;;;;;21.23;40.40;101236.53;5108675;27;45236;-79
2022/06/02 08:59:29;;;;;;;;;6.00;5.25;;;;;21.40;40.55;101244.59;5106395;27;45405;-79
2022/06/02 09:02:34;;;;;;;;;5.00;5.00;;;;;21.54;40.10;101246.34;5088320;27;45171;-78
2022/06/02 09:05:37;;;;;;;;;7.50;6.50;;;;;21.61;39.49;101245.41;5089836;27;46685;-78
2022/06/02 09:08:41;;;;;;;;;5.00;4.50;;;;;21.60;39.48;101243.66;5100811;27;46091;-78
2022/06/02 09:11:25;;;;;;;;;5.00;4.00;;;;;21.65;39.44;101243.63;5093616;27;45502;-79
2022/06/02 09:14:28;;;;;;;;;4.50;4.00;;;;;21.73;39.35;101240.94;5113653;27;45299;-78
2022/06/02 09:17:07;;;;;;;;;4.25;4.25;;;;;21.78;39.28;101237.34;5071364;27;46573;-79
2022/06/02 09:20:04;;;;;;;;;4.75;4.00;;;;;21.58;39.31;101210.66;5092321;27;45852;-78
2022/06/02 09:22:57;;;;;;;;;4.75;4.25;;;;;21.71;39.57;101240.03;5094396;27;45513;-78
2022/06/02 09:26:00;;;;;;;;;4.00;4.00;;;;;21.71;39.43;101245.38;5112468;27;45309;-77
2022/06/02 09:28:36;;;;;;;;;5.50;4.50;;;;;21.74;39.04;101245.41;5013805;28;45961;-79
2022/06/02 09:31:40;;;;;;;;;5.50;5.00;;;;;21.71;38.95;101226.66;5080033;27;46116;-78
2022/06/02 09:34:11;;;;;;;;;4.75;4.75;;;;;21.97;38.41;101245.28;5085528;27;45437;-78
2022/06/02 09:37:01;;;;;;;;;4.25;4.00;;;;;22.03;38.77;101251.53;5070222;27;45546;-79
2022/06/02 09:39:27;;;;;;;;;5.25;5.00;;;;;22.00;38.88;101246.19;5089011;27;45400;-78
2022/06/02 09:42:13;;;;;;;;;5.33;5.33;;;;;21.95;38.80;101249.78;5092770;27;45540;-79
2022/06/02 09:44:41;;;;;;;;;6.00;6.00;;;;;21.62;38.75;101208.84;5092605;27;45476;-79
2022/06/02 09:47:37;;;;;;;;;6.50;6.50;;;;;21.60;39.40;101214.22;5073672;27;45610;-79
2022/06/02 09:50:30;;;;;;;;;6.00;5.50;;;;;21.80;38.80;101235.53;5092677;27;46354;-78
2022/06/02 09:53:11;;;;;;;;;5.00;5.00;;;;;21.81;38.88;101240.00;5073511;27;45410;-78
2022/06/02 09:55:36;;;;;;;;;5.50;5.00;;;;;21.83;39.21;101227.53;5092380;27;45528;-79
2022/06/02 09:58:13;;;;;;;;;4.00;4.00;;;;;21.83;38.55;101232.00;5092765;27;45426;-78
2022/06/02 10:01:02;;;;;;;;;5.00;4.75;;;;;21.82;38.28;101231.09;5071389;27;47664;-79
2022/06/02 10:03:49;;;;;;;;;5.00;4.50;;;;;21.81;38.42;101226.63;5091515;27;45527;-79
2022/06/02 10:06:46;;;;;;;;;4.50;4.50;;;;;21.77;38.13;101214.19;5073871;27;45827;-79
2022/06/02 10:09:14;;;;;;;;;4.00;4.00;;;;;21.85;38.62;101219.47;5092437;27;45661;-79
2022/06/02 10:15:31;;;;;;;;;4.00;3.00;;;;;21.82;38.39;101214.13;5040757;27;45506;-80
2022/06/02 10:18:28;;;;;;;;;4.00;4.00;;;;;21.90;38.58;101212.31;5094072;27;45428;-78
2022/06/02 10:21:22;;;;;;;;;4.00;4.00;;;;;21.92;38.19;101205.19;5094415;27;45525;-78
2022/06/02 10:24:21;;;;;;;;;4.00;4.00;;;;;22.01;38.04;101213.16;5099530;27;46476;-78
2022/06/02 10:27:11;;;;;;;;;5.00;4.00;;;;;22.07;38.31;101218.50;5093768;27;46051;-78
2022/06/02 10:29:59;;;;;;;;;3.00;3.00;;;;;22.23;37.71;101210.41;5111976;27;45580;-79
2022/06/02 10:32:48;;;;;;;;;3.00;3.00;;;;;22.50;37.82;101212.00;5112101;27;45849;-78
2022/06/02 10:35:39;;;;;;;;;4.00;4.00;;;;;22.91;36.59;101207.25;5092930;27;47854;-79
2022/06/02 10:38:30;;;;;;;;;3.50;3.50;;;;;23.23;36.16;101202.47;5093591;27;45926;-78
2022/06/02 10:41:05;;;;;;;;;3.25;3.25;;;;;23.25;35.40;101171.16;5112809;27;45510;-79
2022/06/02 10:43:50;;;;;;;;;4.00;3.25;;;;;23.61;35.91;101212.81;5112333;27;45630;-79
2022/06/02 10:46:38;;;;;;;;;4.00;3.25;;;;;23.72;35.25;101205.53;5110287;27;46448;-78
2022/06/02 10:49:16;;;;;;;;;3.75;3.75;;;;;23.62;35.95;101177.88;5111522;27;45937;-79
2022/06/02 10:52:13;;;;;;;;;4.00;4.00;;;;;23.78;34.92;101215.31;5111492;27;45765;-78
2022/06/02 10:55:00;;;;;;;;;2.00;2.00;;;;;23.78;34.87;101215.31;5111902;27;45690;-79
2022/06/02 10:57:59;;;;;;;;;5.00;4.50;;;;;23.79;34.71;101207.25;5111852;27;46484;-79
2022/06/02 11:00:47;;;;;;;;;4.25;3.25;;;;;23.59;35.08;101167.19;5111510;27;46196;-78
2022/06/02 11:03:46;;;;;;;;;5.00;5.00;;;;;23.72;34.76;101188.53;5112335;27;45685;-79
2022/06/02 11:06:14;;;;;;;;;3.75;3.00;;;;;23.67;34.83;101185.91;5112136;27;45408;-78
2022/06/02 11:08:42;;;;;;;;;4.00;3.00;;;;;23.64;34.66;101183.25;5092623;27;46431;-79
2022/06/02 11:12:06;;;;;;;;;3.00;3.00;;;;;23.60;35.23;101174.34;5094803;27;46349;-79
2022/06/02 11:14:56;;;;;;;;;3.75;3.75;;;;;23.60;34.47;101179.72;5006820;28;45480;-79
2022/06/02 11:17:52;;;;;;;;;4.25;4.25;;;;;23.65;34.24;101180.59;4990411;28;45508;-78
2022/06/02 11:20:55;;;;;;;;;4.00;4.00;;;;;23.68;34.68;101171.59;5076962;27;45522;-78
2022/06/02 11:24:11;;;;;;;;;5.25;3.25;;;;;23.84;34.86;101173.19;5090384;27;45909;-79
2022/06/02 11:26:36;;;;;;;;;2.25;2.25;;;;;23.86;34.19;101171.34;5066851;27;45356;-78
2022/06/02 11:29:04;;;;;;;;;3.67;3.00;;;;;23.88;34.10;101169.53;5091249;27;45465;-80
2022/06/02 11:31:43;;;;;;;;;3.00;3.00;;;;;23.94;33.89;101150.66;5071704;27;46431;-78
2022/06/02 11:34:30;;;;;;;;;4.00;4.00;;;;;24.29;34.42;101135.84;5091004;27;45952;-78
2022/06/02 11:37:28;;;;;;;;;5.00;4.25;;;;;24.62;33.38;101142.47;5072073;27;45573;-79
2022/06/02 11:40:15;;;;;;;;;5.00;5.00;;;;;24.82;33.15;101128.66;5091101;27;45315;-79
2022/06/02 11:43:05;;;;;;;;;4.00;4.00;;;;;25.10;32.59;101155.09;5090283;27;45512;-78
2022/06/02 11:45:48;;;;;;;;;4.00;4.00;;;;;25.18;33.54;101159.44;5089829;27;45925;-79
2022/06/02 11:48:38;;;;;;;;;4.00;4.00;;;;;25.28;32.39;101152.06;5072069;27;45741;-78
2022/06/02 11:51:31;;;;;;;;;3.50;3.50;;;;;25.42;32.06;101150.00;5072335;27;45522;-80
2022/06/02 11:54:17;;;;;;;;;3.25;3.25;;;;;25.64;32.07;101145.03;5072294;27;48180;-79
2022/06/02 11:56:57;;;;;;;;;3.50;3.00;;;;;25.84;32.00;101144.63;5071739;27;45849;-79
2022/06/02 11:59:54;;;;;;;;;4.00;3.00;;;;;25.90;31.97;101146.31;5071676;27;45558;-80
2022/06/02 12:02:40;;;;;;;;;2.25;2.25;;;;;25.84;31.41;101150.03;5089572;27;45633;-81
2022/06/02 12:05:30;;;;;;;;;3.00;3.00;;;;;25.79;31.75;101145.66;5072194;27;47658;-80
2022/06/02 12:08:23;;;;;;;;;3.75;3.75;;;;;25.88;31.25;101140.06;5071842;27;45312;-79
2022/06/02 12:11:13;;;;;;;;;3.50;3.50;;;;;26.01;31.48;101122.72;5065612;27;45563;-79
2022/06/02 12:14:07;;;;;;;;;3.00;3.00;;;;;26.20;31.64;101123.16;5071697;27;45616;-79
2022/06/02 12:16:57;;;;;;;;;4.00;3.50;;;;;26.42;30.93;101126.22;5089449;27;46900;-79
2022/06/02 12:19:31;;;;;;;;;4.00;4.00;;;;;26.52;30.71;101108.94;5071114;27;46182;-79
2022/06/02 12:22:08;;;;;;;;;3.25;3.25;;;;;26.56;30.37;101109.75;5090237;27;45462;-79
2022/06/02 12:25:11;;;;;;;;;4.00;4.00;;;;;26.59;30.74;101097.03;5071553;27;45361;-79
2022/06/02 12:28:10;;;;;;;;;3.00;3.00;;;;;26.74;30.48;101090.38;5090007;27;46270;-80
2022/06/02 12:30:55;;;;;;;;;3.00;3.00;;;;;26.74;31.56;101076.88;5089640;27;45656;-78
2022/06/02 12:33:36;;;;;;;;;5.25;4.75;;;;;26.89;30.91;101062.97;5071436;27;45443;-79
2022/06/02 12:36:44;;;;;;;;;4.00;4.00;;;;;27.21;31.26;101067.50;5071540;27;45419;-80
2022/06/02 12:39:28;;;;;;;;;4.50;3.00;;;;;27.47;30.46;101077.50;5078773;27;45664;-79
2022/06/02 12:42:18;;;;;;;;;3.50;3.00;;;;;27.67;29.93;101067.94;5090041;27;45529;-78
2022/06/02 12:45:05;;;;;;;;;4.00;4.00;;;;;27.77;29.53;101053.22;5089190;27;45537;-79
2022/06/02 12:48:05;;;;;;;;;3.00;2.75;;;;;28.24;29.17;101070.59;5071139;27;45513;-79
2022/06/02 12:50:36;;;;;;;;;3.00;3.00;;;;;28.60;29.17;101050.50;5089280;27;45398;-79
2022/06/02 12:53:14;;;;;;;;;3.25;3.00;;;;;30.44;28.58;101076.81;5090189;27;45899;-79
2022/06/02 12:56:02;;;;;;;;;3.00;3.00;;;;;34.40;24.87;101065.72;5089801;27;45527;-79
2022/06/02 12:59:02;;;;;;;;;3.00;3.00;;;;;38.33;22.33;101073.78;5087351;27;45796;-79
2022/06/02 13:01:30;;;;;;;;;3.00;3.00;;;;;41.18;19.09;101067.59;5069375;27;47223;-79